CXE weather

Chase City Municipal Airport
Chase City, Virginia, United States

Public forecast

Using degrees Fahrenheit for public forecast. Weather courtesy of forecast.io.

METAR (pilot weather report)

Retrieved 2019/07/22 23:35 UTC (18 minutes ago):

KCXE 222335Z AUTO 00000KT 10SM SCT100 30/20 A2986 RMK AO1 T03010204

TAF (pilot weather forecast)

Closest forecast is Danville Regional Airport, 42.2 nm (78.2 km) WSW. Retrieved 2019/07/22 18:42 UTC (5 hours ago):

TAF KDAN 221740Z 2218/2318 23011G19KT P6SM VCSH BKN090 FM222100 23010G18KT 5SM BR BKN090 TEMPO 2221/2222 2SM SHRA OVC006 FM222300 26008KT 3SM SHRA VCTS BKN090CB FM230600 22005KT 3SM BR OVC050 FM231000 24005KT 3SM SHRA OVC008